createdAt,value
2022-08-05T00:01:20.896Z,59.53
2022-08-05T00:04:34.404Z,60.26
2022-08-05T00:08:00.047Z,61.34
2022-08-05T00:11:20.245Z,63.39
2022-08-05T00:14:34.163Z,64.26
2022-08-05T00:17:56.783Z,63.11
2022-08-05T00:21:19.487Z,63.59
2022-08-05T00:24:30.609Z,63.63
2022-08-05T00:27:52.778Z,65.37
2022-08-05T00:31:04.305Z,63.69
2022-08-05T00:34:56.128Z,65.16
2022-08-05T00:37:51.222Z,64.13
2022-08-05T00:41:13.428Z,65.85
2022-08-05T00:44:18.150Z,66.75
2022-08-05T00:47:25.488Z,66.78
2022-08-05T00:50:28.921Z,68.07
2022-08-05T00:54:01.139Z,67.41
2022-08-05T00:56:55.621Z,68.83
2022-08-05T00:59:59.024Z,69.29
2022-08-05T01:03:03.673Z,69.26
2022-08-05T01:06:15.320Z,70.36
2022-08-05T01:09:20.253Z,70.52
2022-08-05T01:12:29.784Z,71.03
2022-08-05T01:15:41.036Z,72.52
2022-08-05T01:18:56.562Z,71.56
2022-08-05T01:22:15.360Z,72.72
2022-08-05T01:25:53.132Z,73.70
2022-08-05T01:29:05.418Z,74.23
2022-08-05T01:32:18.705Z,73.30
2022-08-05T01:35:52.080Z,74.94
2022-08-05T01:38:51.703Z,75.22
2022-08-05T01:41:56.957Z,75.77
2022-08-05T01:45:03.209Z,76.76
2022-08-05T01:48:10.222Z,78.42
2022-08-05T01:51:16.125Z,79.21
2022-08-05T01:54:23.652Z,80.46
2022-08-05T01:58:10.129Z,79.93
2022-08-05T02:01:01.237Z,80.82
2022-08-05T02:04:06.412Z,80.72
2022-08-05T02:07:10.021Z,81.56
2022-08-05T02:10:17.441Z,81.36
2022-08-05T02:13:28.704Z,82.12
2022-08-05T02:16:55.681Z,81.54
2022-08-05T02:20:03.326Z,81.53
2022-08-05T02:23:12.030Z,82.30
2022-08-05T02:26:23.235Z,84.14
2022-08-05T02:29:58.749Z,85.37
2022-08-05T02:32:59.862Z,85.88
2022-08-05T02:36:06.229Z,86.69
2022-08-05T02:39:16.759Z,86.81
2022-08-05T02:42:27.349Z,88.31
2022-08-05T02:45:51.423Z,88.51
2022-08-05T02:48:58.790Z,88.66
2022-08-05T02:52:04.804Z,88.88
2022-08-05T02:55:12.233Z,89.27
2022-08-05T02:58:17.064Z,90.43
2022-08-05T03:01:27.053Z,91.56
2022-08-05T03:04:32.721Z,91.71
2022-08-05T03:08:00.192Z,91.95
2022-08-05T03:11:56.702Z,92.43
2022-08-05T03:14:24.631Z,90.34
2022-08-05T03:17:29.873Z,88.59
2022-08-05T03:20:34.841Z,89.24
2022-08-05T03:23:40.538Z,86.12
2022-08-05T03:26:45.706Z,82.55
2022-08-05T03:30:07.296Z,77.13
2022-08-05T03:34:41.628Z,76.63
2022-08-05T03:37:46.903Z,77.70
2022-08-05T03:40:50.441Z,79.01
2022-08-05T03:44:08.201Z,81.44
2022-08-05T03:47:14.806Z,81.39
2022-08-05T03:50:21.403Z,81.05
2022-08-05T03:55:51.847Z,82.41
2022-08-05T03:56:58.922Z,81.66
2022-08-05T04:00:08.089Z,81.04
2022-08-05T04:03:26.741Z,81.87
2022-08-05T04:06:34.836Z,80.19
2022-08-05T04:09:39.678Z,80.54
2022-08-05T04:12:58.780Z,80.55
2022-08-05T04:16:04.750Z,80.58
2022-08-05T04:19:12.049Z,79.08
2022-08-05T04:22:21.230Z,79.64
2022-08-05T04:25:56.491Z,80.21
2022-08-05T04:28:51.185Z,79.56
2022-08-05T04:31:56.832Z,80.42
2022-08-05T04:35:00.371Z,79.48
2022-08-05T04:38:06.861Z,77.31
2022-08-05T04:41:10.416Z,76.22
2022-08-05T04:44:13.874Z,74.92
2022-08-05T04:47:20.048Z,74.84
2022-08-05T04:50:37.140Z,74.84
2022-08-05T04:53:49.155Z,73.99
2022-08-05T04:56:55.298Z,71.97
2022-08-05T05:00:02.199Z,73.37
2022-08-05T05:03:06.818Z,74.34
2022-08-05T05:06:36.507Z,74.12
2022-08-05T05:09:37.320Z,73.63
2022-08-05T05:12:41.477Z,73.29
2022-08-05T05:15:57.004Z,72.13
2022-08-05T05:19:18.570Z,71.48
2022-08-05T05:22:26.482Z,71.20
2022-08-05T05:25:32.580Z,71.63
2022-08-05T05:28:45.056Z,73.25
2022-08-05T05:31:48.783Z,72.37
2022-08-05T05:34:54.711Z,70.96
2022-08-05T05:38:02.203Z,70.32
2022-08-05T05:41:07.615Z,70.22
2022-08-05T05:44:36.007Z,70.55
2022-08-05T05:48:06.886Z,69.69
2022-08-05T05:51:20.561Z,66.78
2022-08-05T05:54:49.750Z,66.09
2022-08-05T05:57:52.326Z,65.50
2022-08-05T06:00:56.374Z,64.28
2022-08-05T06:04:03.553Z,61.26
2022-08-05T06:07:07.426Z,58.37
2022-08-05T06:10:14.541Z,54.91
2022-08-05T06:13:20.423Z,50.37
2022-08-05T06:16:29.541Z,52.69
2022-08-05T06:19:35.858Z,55.86
2022-08-05T06:22:40.544Z,59.48
2022-08-05T06:26:12.356Z,62.90
2022-08-05T06:29:25.126Z,65.68
2022-08-05T06:32:34.643Z,66.40
2022-08-05T06:36:07.601Z,67.23
2022-08-05T06:39:02.378Z,69.61
2022-08-05T06:42:07.377Z,70.52
2022-08-05T06:45:21.226Z,72.24
2022-08-05T06:48:47.335Z,74.56
2022-08-05T06:51:48.443Z,75.71
2022-08-05T06:54:52.171Z,76.23
2022-08-05T06:58:20.411Z,76.32
2022-08-05T07:01:21.936Z,69.09
2022-08-05T07:04:26.422Z,67.65
2022-08-05T07:07:35.544Z,64.33
2022-08-05T07:10:53.393Z,69.37
2022-08-05T07:14:20.106Z,63.05
2022-08-05T07:17:59.397Z,60.52
2022-08-05T07:20:48.902Z,58.26
2022-08-05T07:23:53.494Z,59.11
2022-08-05T07:26:56.993Z,55.44
2022-08-05T07:30:22.053Z,54.28
2022-08-05T07:33:35.115Z,51.67
2022-08-05T07:36:41.124Z,49.81
2022-08-05T07:40:26.950Z,55.80
2022-08-05T07:43:20.217Z,53.64
2022-08-05T07:46:26.266Z,58.49
2022-08-05T07:49:31.563Z,53.97
2022-08-05T07:52:54.989Z,53.83
2022-08-05T07:56:06.540Z,50.18
2022-08-05T07:59:31.376Z,49.96
2022-08-05T08:03:14.141Z,50.69
2022-08-05T08:06:09.332Z,48.60
2022-08-05T08:09:14.864Z,50.62
2022-08-05T08:12:36.993Z,51.24
2022-08-05T08:16:49.709Z,46.58
2022-08-05T08:19:05.918Z,46.11
2022-08-05T08:22:15.906Z,48.86
2022-08-05T08:25:27.012Z,48.70
2022-08-05T08:28:55.053Z,49.26
2022-08-05T08:32:02.985Z,46.75
2022-08-05T08:35:13.511Z,45.16
2022-08-05T08:38:18.480Z,46.79
2022-08-05T08:41:52.326Z,47.27
2022-08-05T08:45:22.191Z,46.06
2022-08-05T08:49:03.078Z,46.01
2022-08-05T08:52:03.671Z,44.33
2022-08-05T08:55:13.433Z,42.98
2022-08-05T08:58:17.767Z,42.64
2022-08-05T09:01:21.570Z,44.06
2022-08-05T09:04:30.522Z,47.06
2022-08-05T09:07:39.504Z,45.93
2022-08-05T09:10:46.816Z,46.55
2022-08-05T09:14:09.683Z,46.89
2022-08-05T09:17:39.913Z,46.46
2022-08-05T09:20:38.377Z,48.99
2022-08-05T09:23:43.766Z,46.16
2022-08-05T09:26:56.234Z,42.99
2022-08-05T09:30:06.458Z,42.39
2022-08-05T09:34:55.774Z,42.17
2022-08-05T09:38:16.935Z,39.00
2022-08-05T09:41:22.468Z,39.02
2022-08-05T09:44:36.626Z,37.52
2022-08-05T09:47:55.070Z,35.96
2022-08-05T09:51:02.781Z,35.10
2022-08-05T09:54:09.467Z,35.64
2022-08-05T09:57:29.958Z,36.47
2022-08-05T10:00:39.250Z,35.83
2022-08-05T10:03:59.345Z,33.93
2022-08-05T10:07:20.389Z,33.13
2022-08-05T10:10:33.466Z,32.80
2022-08-05T10:13:47.546Z,32.80
2022-08-05T10:16:56.363Z,32.39
2022-08-05T10:20:04.042Z,32.37
2022-08-05T10:23:34.743Z,31.07
2022-08-05T10:26:46.677Z,31.77
2022-08-05T10:30:06.652Z,30.70
2022-08-05T10:33:19.651Z,31.58
2022-08-05T10:36:26.083Z,31.69
2022-08-05T10:40:03.235Z,31.22
2022-08-05T10:43:12.423Z,31.03
2022-08-05T10:46:17.407Z,31.13
2022-08-05T10:49:27.506Z,30.52
2022-08-05T10:52:49.516Z,31.23
2022-08-05T10:56:21.024Z,31.46
2022-08-05T11:00:03.740Z,30.30
2022-08-05T11:03:23.424Z,30.84
2022-08-05T11:06:30.730Z,29.86
2022-08-05T11:09:46.263Z,29.45
2022-08-05T11:12:55.277Z,29.62
2022-08-05T11:16:23.252Z,29.85
2022-08-05T11:20:11.182Z,29.58
2022-08-05T11:23:33.320Z,29.27
2022-08-05T11:27:26.462Z,29.40
2022-08-05T11:31:54.275Z,28.92
2022-08-05T11:34:47.564Z,29.28
2022-08-05T11:38:30.692Z,28.74
2022-08-05T11:41:58.205Z,29.24
2022-08-05T11:44:55.978Z,28.79
2022-08-05T11:48:14.665Z,29.24
2022-08-05T11:51:44.207Z,29.22
2022-08-05T11:54:56.434Z,30.91
2022-08-05T11:58:10.028Z,29.00
2022-08-05T12:01:24.139Z,30.06
2022-08-05T12:04:41.288Z,29.82
2022-08-05T12:08:03.142Z,28.71
2022-08-05T12:11:17.226Z,28.50
2022-08-05T12:14:26.157Z,29.00
2022-08-05T12:18:04.425Z,29.55
2022-08-05T12:21:12.878Z,29.69
2022-08-05T12:24:22.120Z,28.65
2022-08-05T12:27:32.845Z,28.44
2022-08-05T12:30:45.962Z,27.74
2022-08-05T12:33:50.205Z,27.73
2022-08-05T12:36:54.945Z,28.02
2022-08-05T12:40:03.181Z,29.32
2022-08-05T12:43:08.418Z,28.27
2022-08-05T12:46:26.429Z,28.91
2022-08-05T12:50:04.070Z,28.70
2022-08-05T12:53:08.338Z,29.21
2022-08-05T12:56:33.987Z,28.69
2022-08-05T13:01:58.539Z,28.71
2022-08-05T13:03:12.334Z,29.27
2022-08-05T13:06:19.784Z,29.18
2022-08-05T13:09:27.926Z,28.85
2022-08-05T13:12:33.381Z,29.48
2022-08-05T13:15:52.126Z,29.78
2022-08-05T13:18:57.773Z,29.68
2022-08-05T13:22:02.298Z,29.82
2022-08-05T13:25:18.824Z,29.09
2022-08-05T13:28:24.357Z,29.48
2022-08-05T13:31:33.723Z,29.28
2022-08-05T13:34:53.137Z,29.12
2022-08-05T13:37:56.515Z,29.27
2022-08-05T13:41:08.484Z,29.73
2022-08-05T13:44:13.248Z,29.60
2022-08-05T13:47:35.982Z,30.02
2022-08-05T13:50:41.228Z,29.73
2022-08-05T13:53:48.505Z,29.98
2022-08-05T13:56:52.209Z,29.97
2022-08-05T13:59:59.483Z,29.77
2022-08-05T14:03:12.496Z,28.99
2022-08-05T14:06:25.659Z,28.54
2022-08-05T14:09:30.374Z,29.54
2022-08-05T14:12:34.382Z,30.05
2022-08-05T14:16:07.314Z,29.22
2022-08-05T14:19:04.392Z,28.71
2022-08-05T14:22:12.156Z,28.61
2022-08-05T14:25:21.499Z,28.94
2022-08-05T14:28:26.740Z,28.64
2022-08-05T14:32:03.296Z,28.57
2022-08-05T14:34:56.784Z,28.56
2022-08-05T14:38:01.086Z,28.48
2022-08-05T14:41:07.421Z,27.95
2022-08-05T14:44:20.574Z,28.23
2022-08-05T14:48:03.916Z,28.41
2022-08-05T14:50:50.046Z,29.25
2022-08-05T14:54:26.164Z,29.76
2022-08-05T14:57:16.999Z,29.15
2022-08-05T15:00:21.483Z,28.76
2022-08-05T15:03:39.144Z,28.29
2022-08-05T15:06:49.592Z,28.18
2022-08-05T15:09:54.193Z,28.14
2022-08-05T15:13:04.189Z,27.89
2022-08-05T15:16:08.043Z,28.68
2022-08-05T15:19:23.817Z,29.18
2022-08-05T15:22:28.116Z,29.29
2022-08-05T15:25:51.205Z,29.66
2022-08-05T15:28:55.519Z,30.53
2022-08-05T15:34:40.929Z,31.37
2022-08-05T15:38:33.876Z,31.90
2022-08-05T15:41:23.358Z,31.24
2022-08-05T15:44:28.048Z,31.82
2022-08-05T15:47:35.710Z,31.73
2022-08-05T15:50:40.790Z,32.01
2022-08-05T15:53:50.279Z,32.20
2022-08-05T15:56:55.330Z,32.44
2022-08-05T15:59:59.069Z,32.41
2022-08-05T16:03:08.285Z,32.51
2022-08-05T16:06:13.407Z,33.05
2022-08-05T16:09:16.802Z,33.20
2022-08-05T16:12:25.747Z,33.58
2022-08-05T16:15:32.610Z,33.84
2022-08-05T16:18:52.692Z,33.96
2022-08-05T16:21:58.960Z,34.21
2022-08-05T16:25:05.278Z,33.96
2022-08-05T16:28:15.602Z,34.51
2022-08-05T16:31:19.311Z,33.91
2022-08-05T16:34:25.812Z,35.39
2022-08-05T16:38:11.960Z,36.15
2022-08-05T16:41:02.490Z,37.37
2022-08-05T16:44:26.180Z,37.84
2022-08-05T16:47:36.223Z,38.03
2022-08-05T16:50:52.442Z,39.61
2022-08-05T16:54:04.808Z,40.45
2022-08-05T16:57:15.053Z,41.99
2022-08-05T17:00:34.890Z,43.22
2022-08-05T17:03:41.418Z,44.29
2022-08-05T17:06:44.944Z,44.04
2022-08-05T17:09:59.278Z,44.23
2022-08-05T17:13:03.052Z,44.51
2022-08-05T17:16:27.963Z,43.68
2022-08-05T17:19:31.003Z,44.32
2022-08-05T17:22:34.621Z,43.79
2022-08-05T17:25:42.278Z,44.17
2022-08-05T17:28:47.187Z,43.76
2022-08-05T17:31:58.509Z,43.59
2022-08-05T17:35:02.754Z,43.73
2022-08-05T17:38:08.838Z,43.96
2022-08-05T17:42:18.519Z,44.34
2022-08-05T17:44:37.501Z,44.63
2022-08-05T17:47:41.179Z,46.42
2022-08-05T17:50:44.939Z,47.69
2022-08-05T17:53:50.780Z,49.34
2022-08-05T17:57:02.646Z,49.42
2022-08-05T18:00:07.519Z,50.99
2022-08-05T18:03:11.121Z,51.04
2022-08-05T18:06:15.509Z,52.02
2022-08-05T18:09:19.292Z,53.49
2022-08-05T18:12:24.732Z,53.53
2022-08-05T18:15:34.242Z,53.53
2022-08-05T18:18:39.664Z,54.59
2022-08-05T18:22:08.806Z,55.16
2022-08-05T18:25:08.121Z,55.17
2022-08-05T18:28:16.071Z,57.07
2022-08-05T18:31:19.906Z,57.98
2022-08-05T18:34:23.177Z,58.84
2022-08-05T18:37:43.097Z,59.86
2022-08-05T18:41:54.955Z,61.87
2022-08-05T18:44:11.306Z,62.34
2022-08-05T18:47:16.599Z,64.11
2022-08-05T18:50:44.829Z,64.30
2022-08-05T18:53:50.771Z,67.53
2022-08-05T18:56:54.127Z,68.28
2022-08-05T19:00:04.108Z,68.84
2022-08-05T19:03:15.197Z,69.30
2022-08-05T19:06:22.034Z,69.51
2022-08-05T19:09:39.059Z,70.09
2022-08-05T19:12:46.275Z,70.29
2022-08-05T19:15:58.260Z,71.88
2022-08-05T19:19:04.233Z,71.29
2022-08-05T19:22:08.275Z,70.73
2022-08-05T19:25:21.536Z,71.46
2022-08-05T19:28:33.757Z,72.45
2022-08-05T19:31:44.825Z,73.09
2022-08-05T19:34:55.871Z,74.06
2022-08-05T19:38:06.523Z,74.49
2022-08-05T19:41:12.255Z,76.89
2022-08-05T19:44:16.450Z,80.30
2022-08-05T19:47:21.958Z,84.19
2022-08-05T19:50:26.841Z,85.00
2022-08-05T19:54:05.347Z,89.13
2022-08-05T19:56:54.808Z,92.65
2022-08-05T20:00:01.711Z,94.56
2022-08-05T20:03:16.314Z,96.07
2022-08-05T20:06:28.633Z,99.13
2022-08-05T20:09:54.687Z,100.00
2022-08-05T20:12:56.011Z,100.00
2022-08-05T20:15:59.820Z,100.00
2022-08-05T20:19:04.993Z,100.00
2022-08-05T20:22:09.553Z,100.00
2022-08-05T20:25:13.141Z,100.00
2022-08-05T20:28:16.946Z,100.00
2022-08-05T20:31:21.727Z,100.00
2022-08-05T20:34:27.959Z,100.00
2022-08-05T20:38:06.274Z,100.00
2022-08-05T20:40:55.499Z,100.00
2022-08-05T20:44:17.435Z,100.00
2022-08-05T20:47:21.411Z,100.00
2022-08-05T20:50:40.913Z,100.00
2022-08-05T20:53:55.080Z,100.00
2022-08-05T20:56:59.885Z,100.00
2022-08-05T21:00:20.722Z,100.00
2022-08-05T21:03:34.209Z,100.00
2022-08-05T21:06:45.632Z,100.00
2022-08-05T21:09:53.778Z,100.00
2022-08-05T21:13:11.251Z,100.00
2022-08-05T21:16:18.250Z,100.00
2022-08-05T21:19:23.461Z,100.00
2022-08-05T21:22:28.649Z,100.00
2022-08-05T21:25:34.064Z,100.00
2022-08-05T21:28:37.585Z,100.00
2022-08-05T21:34:40.967Z,100.00
2022-08-05T21:37:53.052Z,100.00
2022-08-05T21:40:58.273Z,100.00
2022-08-05T21:44:04.437Z,100.00
2022-08-05T21:47:32.828Z,100.00
2022-08-05T21:50:33.789Z,100.00
2022-08-05T21:53:40.115Z,100.00
2022-08-05T21:56:44.612Z,100.00
2022-08-05T22:00:06.041Z,100.00
2022-08-05T22:03:15.862Z,100.00
2022-08-05T22:06:35.139Z,100.00
2022-08-05T22:09:46.401Z,100.00
2022-08-05T22:12:51.886Z,100.00
2022-08-05T22:16:02.431Z,100.00
2022-08-05T22:19:57.299Z,100.00
2022-08-05T22:22:56.706Z,100.00
2022-08-05T22:26:18.862Z,100.00
2022-08-05T22:29:26.145Z,100.00
2022-08-05T22:32:30.439Z,100.00
2022-08-05T22:35:48.055Z,100.00
2022-08-05T22:38:53.968Z,100.00
2022-08-05T22:42:11.315Z,100.00
2022-08-05T22:45:16.705Z,100.00
2022-08-05T22:48:22.209Z,100.00
2022-08-05T22:52:04.937Z,100.00
2022-08-05T22:54:55.577Z,100.00
2022-08-05T22:57:59.413Z,100.00
2022-08-05T23:01:02.842Z,100.00
2022-08-05T23:04:10.052Z,100.00
2022-08-05T23:07:13.645Z,100.00
2022-08-05T23:10:23.626Z,100.00
2022-08-05T23:13:27.056Z,100.00
2022-08-05T23:16:52.139Z,100.00
2022-08-05T23:19:57.930Z,100.00
2022-08-05T23:23:05.951Z,100.00
2022-08-05T23:26:13.080Z,100.00
2022-08-05T23:29:19.446Z,100.00
2022-08-05T23:32:23.241Z,100.00
2022-08-05T23:35:34.079Z,100.00
2022-08-05T23:38:37.539Z,100.00
2022-08-05T23:41:48.802Z,100.00
2022-08-05T23:44:54.468Z,100.00
2022-08-05T23:47:59.325Z,100.00
2022-08-05T23:51:03.032Z,100.00
2022-08-05T23:54:06.336Z,100.00
2022-08-05T23:57:16.719Z,100.00
